sensor_id;sensor_type;location;lat;lon;timestamp;noise_LAeq;noise_LA_min;noise_LA_max;noise_LA01;noise_LA95
51665;Laerm;37751;52.408;12.536;2022-07-22T00:01:41;46.17;37.95;60.70;;
51665;Laerm;37751;52.408;12.536;2022-07-22T00:04:08;45.06;39.59;58.17;;
51665;Laerm;37751;52.408;12.536;2022-07-22T00:06:34;48.12;40.58;63.15;;
51665;Laerm;37751;52.408;12.536;2022-07-22T00:09:02;50.27;39.46;67.33;;
51665;Laerm;37751;52.408;12.536;2022-07-22T00:11:29;51.82;41.11;68.40;;
51665;Laerm;37751;52.408;12.536;2022-07-22T00:13:56;50.93;39.27;67.52;;
51665;Laerm;37751;52.408;12.536;2022-07-22T00:16:23;53.47;40.13;68.85;;
51665;Laerm;37751;52.408;12.536;2022-07-22T00:18:49;49.66;40.29;66.73;;
51665;Laerm;37751;52.408;12.536;2022-07-22T00:21:17;51.08;38.98;70.69;;
51665;Laerm;37751;52.408;12.536;2022-07-22T00:23:44;45.68;38.19;64.80;;
51665;Laerm;37751;52.408;12.536;2022-07-22T00:26:11;42.83;37.95;50.36;;
51665;Laerm;37751;52.408;12.536;2022-07-22T00:28:38;56.44;38.87;76.25;;
51665;Laerm;37751;52.408;12.536;2022-07-22T00:31:05;49.14;40.41;69.13;;
51665;Laerm;37751;52.408;12.536;2022-07-22T00:33:32;52.20;41.26;68.32;;
51665;Laerm;37751;52.408;12.536;2022-07-22T00:35:59;51.38;40.16;66.11;;
51665;Laerm;37751;52.408;12.536;2022-07-22T00:38:25;45.14;39.01;58.70;;
51665;Laerm;37751;52.408;12.536;2022-07-22T00:40:52;46.93;37.88;61.51;;
51665;Laerm;37751;52.408;12.536;2022-07-22T00:43:19;51.75;39.86;68.73;;
51665;Laerm;37751;52.408;12.536;2022-07-22T00:45:46;51.25;40.50;65.42;;
51665;Laerm;37751;52.408;12.536;2022-07-22T00:48:12;47.28;38.67;64.39;;
51665;Laerm;37751;52.408;12.536;2022-07-22T00:50:39;54.55;38.33;69.62;;
51665;Laerm;37751;52.408;12.536;2022-07-22T00:53:07;48.90;41.30;64.90;;
51665;Laerm;37751;52.408;12.536;2022-07-22T00:55:34;55.33;41.40;71.91;;
51665;Laerm;37751;52.408;12.536;2022-07-22T00:58:03;51.02;41.50;68.60;;
51665;Laerm;37751;52.408;12.536;2022-07-22T01:00:30;48.51;40.18;64.53;;
51665;Laerm;37751;52.408;12.536;2022-07-22T01:02:57;48.71;40.18;59.36;;
51665;Laerm;37751;52.408;12.536;2022-07-22T01:05:24;51.57;40.43;63.04;;
51665;Laerm;37751;52.408;12.536;2022-07-22T01:07:51;45.66;39.87;59.09;;
51665;Laerm;37751;52.408;12.536;2022-07-22T01:10:17;52.89;40.57;63.90;;
51665;Laerm;37751;52.408;12.536;2022-07-22T01:12:45;47.49;39.63;65.33;;
51665;Laerm;37751;52.408;12.536;2022-07-22T01:15:11;54.43;40.16;70.66;;
51665;Laerm;37751;52.408;12.536;2022-07-22T01:17:38;52.14;39.71;68.34;;
51665;Laerm;37751;52.408;12.536;2022-07-22T01:20:07;54.01;42.29;69.71;;
51665;Laerm;37751;52.408;12.536;2022-07-22T01:22:34;47.51;40.59;58.66;;
51665;Laerm;37751;52.408;12.536;2022-07-22T01:25:01;49.93;40.29;64.33;;
51665;Laerm;37751;52.408;12.536;2022-07-22T01:27:28;47.47;40.55;63.81;;
51665;Laerm;37751;52.408;12.536;2022-07-22T01:29:56;50.34;40.32;64.59;;
51665;Laerm;37751;52.408;12.536;2022-07-22T01:32:23;53.22;39.52;72.03;;
51665;Laerm;37751;52.408;12.536;2022-07-22T01:34:50;53.73;42.04;70.76;;
51665;Laerm;37751;52.408;12.536;2022-07-22T01:37:17;52.72;45.59;66.06;;
51665;Laerm;37751;52.408;12.536;2022-07-22T01:39:44;50.71;44.10;78.49;;
51665;Laerm;37751;52.408;12.536;2022-07-22T01:42:11;49.91;44.06;64.61;;
51665;Laerm;37751;52.408;12.536;2022-07-22T01:44:37;52.02;42.33;66.86;;
51665;Laerm;37751;52.408;12.536;2022-07-22T01:47:04;51.60;43.10;64.68;;
51665;Laerm;37751;52.408;12.536;2022-07-22T01:49:31;51.94;43.89;65.51;;
51665;Laerm;37751;52.408;12.536;2022-07-22T01:51:59;51.57;44.06;69.33;;
51665;Laerm;37751;52.408;12.536;2022-07-22T01:54:27;52.93;41.59;70.77;;
51665;Laerm;37751;52.408;12.536;2022-07-22T01:56:53;51.02;42.85;65.06;;
51665;Laerm;37751;52.408;12.536;2022-07-22T01:59:20;53.31;45.70;67.33;;
51665;Laerm;37751;52.408;12.536;2022-07-22T02:01:47;56.27;41.36;84.49;;
51665;Laerm;37751;52.408;12.536;2022-07-22T02:04:14;51.57;41.04;84.50;;
51665;Laerm;37751;52.408;12.536;2022-07-22T02:06:41;52.57;41.71;65.58;;
51665;Laerm;37751;52.408;12.536;2022-07-22T02:09:08;52.48;40.46;65.14;;
51665;Laerm;37751;52.408;12.536;2022-07-22T02:11:35;51.61;42.82;65.08;;
51665;Laerm;37751;52.408;12.536;2022-07-22T02:14:01;56.60;38.59;70.80;;
51665;Laerm;37751;52.408;12.536;2022-07-22T02:16:28;53.89;38.63;68.46;;
51665;Laerm;37751;52.408;12.536;2022-07-22T02:18:55;56.46;41.58;69.37;;
51665;Laerm;37751;52.408;12.536;2022-07-22T02:21:23;57.19;41.25;71.49;;
51665;Laerm;37751;52.408;12.536;2022-07-22T02:23:50;57.39;43.08;69.20;;
51665;Laerm;37751;52.408;12.536;2022-07-22T02:26:17;59.17;45.00;73.94;;
51665;Laerm;37751;52.408;12.536;2022-07-22T02:28:44;57.77;45.82;71.64;;
51665;Laerm;37751;52.408;12.536;2022-07-22T02:31:11;52.60;39.58;64.74;;
51665;Laerm;37751;52.408;12.536;2022-07-22T02:33:38;57.51;47.61;67.18;;
51665;Laerm;37751;52.408;12.536;2022-07-22T02:36:05;53.50;43.60;66.68;;
51665;Laerm;37751;52.408;12.536;2022-07-22T02:38:32;57.32;45.77;68.96;;
51665;Laerm;37751;52.408;12.536;2022-07-22T02:40:59;57.66;47.38;66.78;;
51665;Laerm;37751;52.408;12.536;2022-07-22T02:43:26;58.22;50.40;68.01;;
51665;Laerm;37751;52.408;12.536;2022-07-22T02:45:53;56.35;47.21;71.37;;
51665;Laerm;37751;52.408;12.536;2022-07-22T02:48:20;56.81;45.18;64.85;;
51665;Laerm;37751;52.408;12.536;2022-07-22T02:50:47;56.65;44.32;68.34;;
51665;Laerm;37751;52.408;12.536;2022-07-22T02:53:14;57.11;44.31;74.25;;
51665;Laerm;37751;52.408;12.536;2022-07-22T02:55:41;59.11;46.05;84.51;;
51665;Laerm;37751;52.408;12.536;2022-07-22T02:58:08;56.64;43.48;68.01;;
51665;Laerm;37751;52.408;12.536;2022-07-22T03:00:36;59.93;46.63;84.51;;
51665;Laerm;37751;52.408;12.536;2022-07-22T03:03:07;61.06;46.69;73.63;;
51665;Laerm;37751;52.408;12.536;2022-07-22T03:05:33;57.71;45.41;73.94;;
51665;Laerm;37751;52.408;12.536;2022-07-22T03:08:00;60.28;50.16;72.38;;
51665;Laerm;37751;52.408;12.536;2022-07-22T03:10:27;61.14;47.57;76.22;;
51665;Laerm;37751;52.408;12.536;2022-07-22T03:12:54;57.04;45.91;67.55;;
51665;Laerm;37751;52.408;12.536;2022-07-22T03:15:21;60.40;46.60;76.71;;
51665;Laerm;37751;52.408;12.536;2022-07-22T03:17:48;61.37;48.41;75.31;;
51665;Laerm;37751;52.408;12.536;2022-07-22T03:20:15;59.66;46.14;72.20;;
51665;Laerm;37751;52.408;12.536;2022-07-22T03:22:41;61.56;49.14;84.54;;
51665;Laerm;37751;52.408;12.536;2022-07-22T03:25:08;57.56;47.13;68.76;;
51665;Laerm;37751;52.408;12.536;2022-07-22T03:27:35;58.66;46.40;84.50;;
51665;Laerm;37751;52.408;12.536;2022-07-22T03:30:04;60.31;48.39;71.44;;
51665;Laerm;37751;52.408;12.536;2022-07-22T03:32:31;62.47;46.06;74.79;;
51665;Laerm;37751;52.408;12.536;2022-07-22T03:34:58;61.01;50.71;71.13;;
51665;Laerm;37751;52.408;12.536;2022-07-22T03:37:30;62.24;49.26;79.57;;
51665;Laerm;37751;52.408;12.536;2022-07-22T03:39:57;60.39;48.45;69.71;;
51665;Laerm;37751;52.408;12.536;2022-07-22T03:42:24;59.60;48.60;73.06;;
51665;Laerm;37751;52.408;12.536;2022-07-22T03:44:51;60.21;47.68;70.48;;
51665;Laerm;37751;52.408;12.536;2022-07-22T03:47:21;61.24;49.05;76.35;;
51665;Laerm;37751;52.408;12.536;2022-07-22T03:49:49;59.92;47.14;72.41;;
51665;Laerm;37751;52.408;12.536;2022-07-22T03:52:16;63.51;48.57;76.64;;
51665;Laerm;37751;52.408;12.536;2022-07-22T03:54:43;61.25;47.65;76.49;;
51665;Laerm;37751;52.408;12.536;2022-07-22T03:57:11;61.34;46.57;75.13;;
51665;Laerm;37751;52.408;12.536;2022-07-22T03:59:38;60.57;46.93;71.83;;
51665;Laerm;37751;52.408;12.536;2022-07-22T04:02:05;62.56;49.50;75.28;;
51665;Laerm;37751;52.408;12.536;2022-07-22T04:04:32;60.19;50.64;68.74;;
51665;Laerm;37751;52.408;12.536;2022-07-22T04:06:58;61.45;49.82;76.84;;
51665;Laerm;37751;52.408;12.536;2022-07-22T04:09:25;61.30;48.95;71.52;;
51665;Laerm;37751;52.408;12.536;2022-07-22T04:11:52;60.83;44.48;71.73;;
51665;Laerm;37751;52.408;12.536;2022-07-22T04:14:19;63.41;49.13;74.94;;
51665;Laerm;37751;52.408;12.536;2022-07-22T04:16:46;63.50;52.15;75.68;;
51665;Laerm;37751;52.408;12.536;2022-07-22T04:19:13;63.30;52.02;71.96;;
51665;Laerm;37751;52.408;12.536;2022-07-22T04:21:41;61.02;48.52;70.43;;
51665;Laerm;37751;52.408;12.536;2022-07-22T04:24:08;62.59;48.88;77.09;;
51665;Laerm;37751;52.408;12.536;2022-07-22T04:26:34;63.10;51.86;74.40;;
51665;Laerm;37751;52.408;12.536;2022-07-22T04:29:04;62.62;48.13;72.56;;
51665;Laerm;37751;52.408;12.536;2022-07-22T04:31:30;63.64;46.75;75.16;;
51665;Laerm;37751;52.408;12.536;2022-07-22T04:33:58;63.17;51.61;79.53;;
51665;Laerm;37751;52.408;12.536;2022-07-22T04:36:25;61.82;50.16;73.55;;
51665;Laerm;37751;52.408;12.536;2022-07-22T04:38:52;63.89;51.91;75.07;;
51665;Laerm;37751;52.408;12.536;2022-07-22T04:41:19;74.74;51.07;95.80;;
51665;Laerm;37751;52.408;12.536;2022-07-22T04:43:46;63.42;48.23;80.42;;
51665;Laerm;37751;52.408;12.536;2022-07-22T04:46:13;74.02;51.62;92.15;;
51665;Laerm;37751;52.408;12.536;2022-07-22T04:48:40;65.31;50.34;78.83;;
51665;Laerm;37751;52.408;12.536;2022-07-22T04:51:07;63.52;52.14;77.78;;
51665;Laerm;37751;52.408;12.536;2022-07-22T04:53:33;64.52;52.73;81.13;;
51665;Laerm;37751;52.408;12.536;2022-07-22T04:56:13;64.40;47.83;79.42;;
51665;Laerm;37751;52.408;12.536;2022-07-22T04:58:40;63.38;49.71;81.62;;
51665;Laerm;37751;52.408;12.536;2022-07-22T05:01:06;63.33;49.67;78.70;;
51665;Laerm;37751;52.408;12.536;2022-07-22T05:03:33;62.94;50.07;74.26;;
51665;Laerm;37751;52.408;12.536;2022-07-22T05:06:01;62.62;48.48;77.11;;
51665;Laerm;37751;52.408;12.536;2022-07-22T05:08:28;63.90;52.20;76.36;;
51665;Laerm;37751;52.408;12.536;2022-07-22T05:10:54;63.51;51.52;75.04;;
51665;Laerm;37751;52.408;12.536;2022-07-22T05:29:49;61.91;49.92;81.39;;
51665;Laerm;37751;52.408;12.536;2022-07-22T05:32:15;64.50;54.05;84.43;;
51665;Laerm;37751;52.408;12.536;2022-07-22T05:34:42;62.42;49.40;79.04;;
51665;Laerm;37751;52.408;12.536;2022-07-22T05:37:09;61.56;51.73;72.92;;
51665;Laerm;37751;52.408;12.536;2022-07-22T05:39:36;62.69;49.90;76.20;;
51665;Laerm;37751;52.408;12.536;2022-07-22T05:42:03;63.20;50.73;74.69;;
51665;Laerm;37751;52.408;12.536;2022-07-22T05:44:30;64.71;52.78;76.94;;
51665;Laerm;37751;52.408;12.536;2022-07-22T05:46:56;62.68;52.38;78.98;;
51665;Laerm;37751;52.408;12.536;2022-07-22T05:49:23;81.11;52.09;96.06;;
51665;Laerm;37751;52.408;12.536;2022-07-22T05:51:53;63.02;51.14;73.19;;
51665;Laerm;37751;52.408;12.536;2022-07-22T05:54:20;63.71;50.57;79.32;;
51665;Laerm;37751;52.408;12.536;2022-07-22T05:56:47;63.29;53.46;75.16;;
51665;Laerm;37751;52.408;12.536;2022-07-22T05:59:14;63.60;52.52;72.39;;
51665;Laerm;37751;52.408;12.536;2022-07-22T06:01:42;62.33;48.97;73.02;;
51665;Laerm;37751;52.408;12.536;2022-07-22T06:04:09;63.20;51.97;78.75;;
51665;Laerm;37751;52.408;12.536;2022-07-22T06:06:36;62.18;50.93;73.83;;
51665;Laerm;37751;52.408;12.536;2022-07-22T06:09:03;63.44;49.60;74.48;;
51665;Laerm;37751;52.408;12.536;2022-07-22T06:11:30;63.04;51.84;77.38;;
51665;Laerm;37751;52.408;12.536;2022-07-22T06:13:56;62.87;47.85;72.85;;
51665;Laerm;37751;52.408;12.536;2022-07-22T06:16:23;69.58;53.55;88.66;;
51665;Laerm;37751;52.408;12.536;2022-07-22T06:18:50;63.91;53.12;75.84;;
51665;Laerm;37751;52.408;12.536;2022-07-22T06:21:17;64.12;49.25;77.94;;
51665;Laerm;37751;52.408;12.536;2022-07-22T06:23:44;62.43;50.30;71.80;;
51665;Laerm;37751;52.408;12.536;2022-07-22T06:26:10;63.83;51.16;80.96;;
51665;Laerm;37751;52.408;12.536;2022-07-22T06:28:37;64.07;53.00;78.71;;
51665;Laerm;37751;52.408;12.536;2022-07-22T06:31:04;69.63;53.94;82.00;;
51665;Laerm;37751;52.408;12.536;2022-07-22T06:33:31;75.18;61.26;87.69;;
51665;Laerm;37751;52.408;12.536;2022-07-22T06:35:59;66.87;54.63;84.13;;
51665;Laerm;37751;52.408;12.536;2022-07-22T06:38:26;71.25;53.84;80.92;;
51665;Laerm;37751;52.408;12.536;2022-07-22T06:41:00;62.89;53.41;74.80;;
51665;Laerm;37751;52.408;12.536;2022-07-22T06:43:27;62.83;51.64;82.22;;
51665;Laerm;37751;52.408;12.536;2022-07-22T06:45:57;63.25;53.02;75.15;;
51665;Laerm;37751;52.408;12.536;2022-07-22T06:48:24;60.51;51.52;70.04;;
51665;Laerm;37751;52.408;12.536;2022-07-22T06:50:51;61.50;49.94;74.09;;
51665;Laerm;37751;52.408;12.536;2022-07-22T06:53:19;63.25;53.92;73.74;;
51665;Laerm;37751;52.408;12.536;2022-07-22T06:55:46;62.90;52.13;71.23;;
51665;Laerm;37751;52.408;12.536;2022-07-22T06:58:13;62.81;49.46;75.38;;
51665;Laerm;37751;52.408;12.536;2022-07-22T07:00:40;64.10;53.30;75.12;;
51665;Laerm;37751;52.408;12.536;2022-07-22T07:03:07;62.29;52.44;73.28;;
51665;Laerm;37751;52.408;12.536;2022-07-22T07:05:54;63.93;51.46;75.79;;
51665;Laerm;37751;52.408;12.536;2022-07-22T07:08:21;65.30;51.99;79.90;;
51665;Laerm;37751;52.408;12.536;2022-07-22T07:10:47;63.35;52.07;73.68;;
51665;Laerm;37751;52.408;12.536;2022-07-22T07:13:14;61.97;47.28;81.49;;
51665;Laerm;37751;52.408;12.536;2022-07-22T07:15:42;62.37;49.63;75.26;;
51665;Laerm;37751;52.408;12.536;2022-07-22T07:18:09;61.32;48.51;75.92;;
51665;Laerm;37751;52.408;12.536;2022-07-22T07:20:36;62.46;49.54;73.26;;
51665;Laerm;37751;52.408;12.536;2022-07-22T07:23:03;64.23;54.42;80.97;;
51665;Laerm;37751;52.408;12.536;2022-07-22T07:25:31;67.22;56.16;76.26;;
51665;Laerm;37751;52.408;12.536;2022-07-22T07:27:58;69.16;51.31;85.39;;
51665;Laerm;37751;52.408;12.536;2022-07-22T07:30:25;65.26;51.64;79.78;;
51665;Laerm;37751;52.408;12.536;2022-07-22T07:32:52;63.51;51.41;82.50;;
51665;Laerm;37751;52.408;12.536;2022-07-22T07:35:19;63.97;54.39;74.49;;
51665;Laerm;37751;52.408;12.536;2022-07-22T07:37:46;63.87;52.74;80.66;;
51665;Laerm;37751;52.408;12.536;2022-07-22T07:40:13;62.70;50.78;79.82;;
51665;Laerm;37751;52.408;12.536;2022-07-22T07:42:41;61.41;52.41;71.11;;
51665;Laerm;37751;52.408;12.536;2022-07-22T07:45:14;62.25;48.54;71.43;;
51665;Laerm;37751;52.408;12.536;2022-07-22T07:47:41;62.89;48.42;78.71;;
51665;Laerm;37751;52.408;12.536;2022-07-22T07:50:09;61.08;49.31;73.82;;
51665;Laerm;37751;52.408;12.536;2022-07-22T07:52:38;62.62;52.41;71.59;;
51665;Laerm;37751;52.408;12.536;2022-07-22T07:55:07;62.13;52.99;73.81;;
51665;Laerm;37751;52.408;12.536;2022-07-22T07:57:38;61.73;52.59;69.16;;
51665;Laerm;37751;52.408;12.536;2022-07-22T08:00:08;62.79;51.73;74.13;;
51665;Laerm;37751;52.408;12.536;2022-07-22T08:02:38;62.19;51.64;75.23;;
51665;Laerm;37751;52.408;12.536;2022-07-22T08:05:08;62.76;50.46;73.74;;
51665;Laerm;37751;52.408;12.536;2022-07-22T08:07:36;61.47;48.01;69.72;;
51665;Laerm;37751;52.408;12.536;2022-07-22T08:10:07;62.82;50.21;76.42;;
51665;Laerm;37751;52.408;12.536;2022-07-22T08:12:54;61.73;47.56;74.50;;
51665;Laerm;37751;52.408;12.536;2022-07-22T08:15:22;63.71;49.94;72.49;;
51665;Laerm;37751;52.408;12.536;2022-07-22T08:17:53;61.04;50.79;69.89;;
51665;Laerm;37751;52.408;12.536;2022-07-22T08:20:21;63.64;51.01;76.22;;
51665;Laerm;37751;52.408;12.536;2022-07-22T08:22:49;63.49;50.26;77.60;;
51665;Laerm;37751;52.408;12.536;2022-07-22T08:25:17;61.98;50.26;75.07;;
51665;Laerm;37751;52.408;12.536;2022-07-22T08:27:44;62.47;53.03;79.57;;
51665;Laerm;37751;52.408;12.536;2022-07-22T08:30:11;63.36;52.98;76.58;;
51665;Laerm;37751;52.408;12.536;2022-07-22T08:32:39;61.62;52.49;70.85;;
51665;Laerm;37751;52.408;12.536;2022-07-22T08:35:07;62.08;52.50;71.72;;
51665;Laerm;37751;52.408;12.536;2022-07-22T08:37:34;61.20;50.16;69.36;;
51665;Laerm;37751;52.408;12.536;2022-07-22T08:40:02;61.16;49.69;71.07;;
51665;Laerm;37751;52.408;12.536;2022-07-22T08:42:30;61.98;50.88;70.61;;
51665;Laerm;37751;52.408;12.536;2022-07-22T08:44:57;62.24;49.83;83.12;;
51665;Laerm;37751;52.408;12.536;2022-07-22T08:47:31;61.93;48.74;75.68;;
51665;Laerm;37751;52.408;12.536;2022-07-22T08:50:09;61.26;50.15;72.44;;
51665;Laerm;37751;52.408;12.536;2022-07-22T08:52:36;61.33;50.03;72.59;;
51665;Laerm;37751;52.408;12.536;2022-07-22T08:55:05;61.91;51.90;72.87;;
51665;Laerm;37751;52.408;12.536;2022-07-22T08:57:32;64.17;49.19;80.11;;
51665;Laerm;37751;52.408;12.536;2022-07-22T09:00:01;61.32;51.16;70.51;;
51665;Laerm;37751;52.408;12.536;2022-07-22T09:02:38;61.18;52.39;73.12;;
51665;Laerm;37751;52.408;12.536;2022-07-22T09:05:07;63.41;51.06;72.16;;
51665;Laerm;37751;52.408;12.536;2022-07-22T09:07:58;62.40;52.55;80.59;;
51665;Laerm;37751;52.408;12.536;2022-07-22T09:10:33;62.54;50.05;73.28;;
51665;Laerm;37751;52.408;12.536;2022-07-22T09:13:08;61.83;50.99;76.06;;
51665;Laerm;37751;52.408;12.536;2022-07-22T09:15:40;62.47;45.82;75.39;;
51665;Laerm;37751;52.408;12.536;2022-07-22T09:18:12;61.13;50.49;72.68;;
51665;Laerm;37751;52.408;12.536;2022-07-22T09:20:39;62.65;50.07;72.88;;
51665;Laerm;37751;52.408;12.536;2022-07-22T09:23:15;61.59;50.84;77.48;;
51665;Laerm;37751;52.408;12.536;2022-07-22T09:25:44;61.98;51.59;71.21;;
51665;Laerm;37751;52.408;12.536;2022-07-22T09:28:19;61.75;53.66;70.68;;
51665;Laerm;37751;52.408;12.536;2022-07-22T09:30:53;71.49;53.11;94.70;;
51665;Laerm;37751;52.408;12.536;2022-07-22T09:33:23;62.19;50.82;72.87;;
51665;Laerm;37751;52.408;12.536;2022-07-22T09:35:52;72.75;50.17;94.11;;
51665;Laerm;37751;52.408;12.536;2022-07-22T09:38:28;63.30;49.73;75.13;;
51665;Laerm;37751;52.408;12.536;2022-07-22T09:40:56;70.33;50.93;94.11;;
51665;Laerm;37751;52.408;12.536;2022-07-22T09:43:23;62.02;50.89;80.14;;
51665;Laerm;37751;52.408;12.536;2022-07-22T09:45:56;62.07;50.56;73.34;;
51665;Laerm;37751;52.408;12.536;2022-07-22T09:48:25;61.70;50.06;73.67;;
51665;Laerm;37751;52.408;12.536;2022-07-22T09:50:54;60.77;48.82;70.54;;
51665;Laerm;37751;52.408;12.536;2022-07-22T09:53:27;60.77;49.08;71.08;;
51665;Laerm;37751;52.408;12.536;2022-07-22T09:56:05;61.82;50.23;71.04;;
51665;Laerm;37751;52.408;12.536;2022-07-22T09:58:33;66.44;51.46;85.29;;
51665;Laerm;37751;52.408;12.536;2022-07-22T10:01:05;61.60;50.35;71.53;;
51665;Laerm;37751;52.408;12.536;2022-07-22T10:03:35;61.42;47.94;70.80;;
51665;Laerm;37751;52.408;12.536;2022-07-22T10:06:04;62.07;50.38;75.40;;
51665;Laerm;37751;52.408;12.536;2022-07-22T10:08:33;61.48;49.68;72.70;;
51665;Laerm;37751;52.408;12.536;2022-07-22T10:11:03;61.68;50.34;71.00;;
51665;Laerm;37751;52.408;12.536;2022-07-22T10:13:31;62.06;48.04;84.12;;
51665;Laerm;37751;52.408;12.536;2022-07-22T10:15:59;61.72;52.68;77.15;;
51665;Laerm;37751;52.408;12.536;2022-07-22T10:18:27;62.31;52.54;72.78;;
51665;Laerm;37751;52.408;12.536;2022-07-22T10:21:14;60.87;51.68;70.84;;
51665;Laerm;37751;52.408;12.536;2022-07-22T10:24:14;67.69;51.98;89.45;;
51665;Laerm;37751;52.408;12.536;2022-07-22T10:26:58;62.00;52.30;71.20;;
51665;Laerm;37751;52.408;12.536;2022-07-22T10:29:42;61.54;49.80;79.15;;
51665;Laerm;37751;52.408;12.536;2022-07-22T10:40:21;63.72;49.42;79.21;;
51665;Laerm;37751;52.408;12.536;2022-07-22T10:45:31;63.47;51.17;79.43;;
51665;Laerm;37751;52.408;12.536;2022-07-22T10:48:01;63.07;51.50;84.49;;
51665;Laerm;37751;52.408;12.536;2022-07-22T10:53:16;64.32;55.17;77.09;;
51665;Laerm;37751;52.408;12.536;2022-07-22T11:01:11;62.40;48.65;79.50;;
51665;Laerm;37751;52.408;12.536;2022-07-22T11:03:40;63.23;51.25;76.14;;
51665;Laerm;37751;52.408;12.536;2022-07-22T11:06:15;62.47;50.54;77.77;;
51665;Laerm;37751;52.408;12.536;2022-07-22T11:08:45;63.49;50.65;79.46;;
51665;Laerm;37751;52.408;12.536;2022-07-22T11:11:12;63.44;51.46;75.97;;
51665;Laerm;37751;52.408;12.536;2022-07-22T11:13:42;62.32;49.92;75.35;;
51665;Laerm;37751;52.408;12.536;2022-07-22T11:16:24;63.32;49.10;74.95;;
51665;Laerm;37751;52.408;12.536;2022-07-22T11:18:57;63.45;49.91;71.31;;
51665;Laerm;37751;52.408;12.536;2022-07-22T11:21:29;62.30;51.30;72.29;;
51665;Laerm;37751;52.408;12.536;2022-07-22T11:23:59;62.94;49.47;76.18;;
51665;Laerm;37751;52.408;12.536;2022-07-22T11:26:43;63.87;50.78;79.99;;
51665;Laerm;37751;52.408;12.536;2022-07-22T11:29:18;63.19;51.41;74.55;;
51665;Laerm;37751;52.408;12.536;2022-07-22T11:31:45;62.59;50.51;71.17;;
51665;Laerm;37751;52.408;12.536;2022-07-22T11:34:14;71.39;50.27;93.00;;
51665;Laerm;37751;52.408;12.536;2022-07-22T11:36:47;63.94;51.58;80.27;;
51665;Laerm;37751;52.408;12.536;2022-07-22T11:39:30;61.80;50.83;70.15;;
51665;Laerm;37751;52.408;12.536;2022-07-22T11:41:58;62.04;50.16;75.27;;
51665;Laerm;37751;52.408;12.536;2022-07-22T11:44:33;62.69;50.80;71.34;;
51665;Laerm;37751;52.408;12.536;2022-07-22T11:47:00;62.10;47.87;71.80;;
51665;Laerm;37751;52.408;12.536;2022-07-22T11:49:31;61.57;49.42;72.29;;
51665;Laerm;37751;52.408;12.536;2022-07-22T11:52:01;66.34;50.64;89.94;;
51665;Laerm;37751;52.408;12.536;2022-07-22T11:54:28;61.84;51.08;69.61;;
51665;Laerm;37751;52.408;12.536;2022-07-22T11:56:55;63.64;49.16;80.88;;
51665;Laerm;37751;52.408;12.536;2022-07-22T11:59:23;61.42;46.64;70.54;;
51665;Laerm;37751;52.408;12.536;2022-07-22T12:01:50;61.60;47.83;71.12;;
51665;Laerm;37751;52.408;12.536;2022-07-22T12:04:25;62.21;51.47;74.66;;
51665;Laerm;37751;52.408;12.536;2022-07-22T12:06:54;62.56;48.87;78.35;;
51665;Laerm;37751;52.408;12.536;2022-07-22T12:09:28;62.96;48.77;76.93;;
51665;Laerm;37751;52.408;12.536;2022-07-22T12:11:57;63.04;51.18;73.54;;
51665;Laerm;37751;52.408;12.536;2022-07-22T12:14:30;59.60;46.60;68.94;;
51665;Laerm;37751;52.408;12.536;2022-07-22T12:17:09;61.04;49.12;70.75;;
51665;Laerm;37751;52.408;12.536;2022-07-22T12:19:38;64.46;50.46;76.91;;
51665;Laerm;37751;52.408;12.536;2022-07-22T12:22:11;62.82;50.39;73.46;;
51665;Laerm;37751;52.408;12.536;2022-07-22T12:24:44;62.31;47.87;74.03;;
51665;Laerm;37751;52.408;12.536;2022-07-22T12:27:17;62.46;51.92;69.99;;
51665;Laerm;37751;52.408;12.536;2022-07-22T12:29:48;61.74;49.37;74.06;;
51665;Laerm;37751;52.408;12.536;2022-07-22T12:32:35;61.75;48.68;70.57;;
51665;Laerm;37751;52.408;12.536;2022-07-22T12:35:04;61.52;52.35;68.24;;
51665;Laerm;37751;52.408;12.536;2022-07-22T12:37:44;60.32;48.01;68.21;;
51665;Laerm;37751;52.408;12.536;2022-07-22T12:40:19;62.96;50.41;77.13;;
51665;Laerm;37751;52.408;12.536;2022-07-22T12:43:08;61.41;50.08;73.28;;
51665;Laerm;37751;52.408;12.536;2022-07-22T12:45:38;64.40;53.67;77.34;;
51665;Laerm;37751;52.408;12.536;2022-07-22T12:48:09;62.21;49.34;72.74;;
51665;Laerm;37751;52.408;12.536;2022-07-22T12:50:55;60.89;44.57;74.81;;
51665;Laerm;37751;52.408;12.536;2022-07-22T12:53:24;62.04;47.03;71.21;;
51665;Laerm;37751;52.408;12.536;2022-07-22T12:55:57;63.42;51.01;71.44;;
51665;Laerm;37751;52.408;12.536;2022-07-22T12:58:31;60.91;47.40;75.16;;
51665;Laerm;37751;52.408;12.536;2022-07-22T13:01:03;62.28;52.66;71.08;;
51665;Laerm;37751;52.408;12.536;2022-07-22T13:03:30;63.76;52.07;77.62;;
51665;Laerm;37751;52.408;12.536;2022-07-22T13:06:01;61.48;52.71;71.58;;
51665;Laerm;37751;52.408;12.536;2022-07-22T13:08:33;60.79;50.33;75.07;;
51665;Laerm;37751;52.408;12.536;2022-07-22T13:11:12;60.45;48.33;72.45;;
51665;Laerm;37751;52.408;12.536;2022-07-22T13:13:39;61.68;45.14;78.20;;
51665;Laerm;37751;52.408;12.536;2022-07-22T13:16:09;60.75;48.34;75.32;;
51665;Laerm;37751;52.408;12.536;2022-07-22T13:18:36;65.78;49.69;83.97;;
51665;Laerm;37751;52.408;12.536;2022-07-22T13:21:03;63.11;51.06;77.90;;
51665;Laerm;37751;52.408;12.536;2022-07-22T13:23:32;62.07;48.81;75.41;;
51665;Laerm;37751;52.408;12.536;2022-07-22T13:25:59;61.27;45.35;73.52;;
51665;Laerm;37751;52.408;12.536;2022-07-22T13:28:26;62.32;49.91;78.38;;
51665;Laerm;37751;52.408;12.536;2022-07-22T13:30:53;60.23;48.47;68.33;;
51665;Laerm;37751;52.408;12.536;2022-07-22T13:33:20;61.03;51.44;73.17;;
51665;Laerm;37751;52.408;12.536;2022-07-22T13:35:47;59.95;49.73;72.62;;
51665;Laerm;37751;52.408;12.536;2022-07-22T13:38:13;62.27;46.82;75.74;;
51665;Laerm;37751;52.408;12.536;2022-07-22T13:40:44;61.09;50.32;75.39;;
51665;Laerm;37751;52.408;12.536;2022-07-22T13:43:23;61.78;47.28;72.24;;
51665;Laerm;37751;52.408;12.536;2022-07-22T13:45:51;63.83;47.27;79.05;;
51665;Laerm;37751;52.408;12.536;2022-07-22T13:48:18;60.91;48.36;71.50;;
51665;Laerm;37751;52.408;12.536;2022-07-22T13:50:47;60.69;48.15;72.69;;
51665;Laerm;37751;52.408;12.536;2022-07-22T13:53:14;62.84;49.76;74.01;;
51665;Laerm;37751;52.408;12.536;2022-07-22T13:55:41;60.65;47.70;71.14;;
51665;Laerm;37751;52.408;12.536;2022-07-22T13:58:08;61.55;47.77;74.20;;
51665;Laerm;37751;52.408;12.536;2022-07-22T14:00:35;64.74;54.36;81.27;;
51665;Laerm;37751;52.408;12.536;2022-07-22T14:03:02;62.14;52.55;70.74;;
51665;Laerm;37751;52.408;12.536;2022-07-22T14:05:31;60.52;46.85;71.62;;
51665;Laerm;37751;52.408;12.536;2022-07-22T14:07:58;60.25;48.15;71.99;;
51665;Laerm;37751;52.408;12.536;2022-07-22T14:10:24;60.81;49.95;71.75;;
51665;Laerm;37751;52.408;12.536;2022-07-22T14:12:51;61.45;50.22;77.01;;
51665;Laerm;37751;52.408;12.536;2022-07-22T14:15:18;59.44;46.06;68.26;;
51665;Laerm;37751;52.408;12.536;2022-07-22T14:17:46;69.04;49.12;92.26;;